Time;durP1;ratioP1;P1;durP2;ratioP2;P2;SDS_P1;SDS_P2;PMS_P1;PMS_P2;Temp;Humidity;BMP_temperature;BMP_pressure;BME280_temperature;BME280_humidity;BME280_pressure;Samples;Min_cycle;Max_cycle;Signal;HPM_P1;HPM_P2
2021/12/11 00:01:49;;;;;;;10.15;5.40;;;;;;;1.34;76.80;93935.28;5073260;28;20127;-72
2021/12/11 00:04:31;;;;;;;10.27;5.93;;;;;;;1.53;77.41;93946.06;5073956;28;20024;-71
2021/12/11 00:06:57;;;;;;;9.13;5.22;;;;;;;1.62;77.45;93928.47;5090054;28;20028;-72
2021/12/11 00:09:41;;;;;;;12.68;7.75;;;;;;;1.68;76.94;93936.59;5054032;28;20025;-72
2021/12/11 00:12:11;;;;;;;16.23;7.55;;;;;;;1.67;77.25;93944.34;5073199;28;20031;-72
2021/12/11 00:14:42;;;;;;;17.95;9.48;;;;;;;1.61;77.97;93945.56;5089803;28;20556;-72
2021/12/11 00:17:08;;;;;;;14.07;8.82;;;;;;;1.60;77.32;93954.16;5090046;28;20032;-72
2021/12/11 00:19:35;;;;;;;16.25;7.65;;;;;;;1.51;78.03;93962.41;5073060;28;20090;-72
2021/12/11 00:22:12;;;;;;;7.63;4.90;;;;;;;1.40;78.57;93949.44;5089939;28;20471;-71
2021/12/11 00:24:37;;;;;;;10.43;6.03;;;;;;;1.54;77.69;93967.34;5086140;28;20098;-72
2021/12/11 00:27:06;;;;;;;16.25;8.35;;;;;;;1.62;77.86;93972.00;5078671;28;20024;-72
2021/12/11 00:29:31;;;;;;;16.77;8.50;;;;;;;1.58;77.41;93967.97;5053004;28;20028;-72
2021/12/11 00:32:28;;;;;;;12.48;7.63;;;;;;;1.55;78.17;93969.78;5087914;28;20399;-72
2021/12/11 00:34:56;;;;;;;12.30;7.35;;;;;;;1.57;77.86;93992.75;5087986;28;20044;-72
2021/12/11 00:37:23;;;;;;;12.38;5.97;;;;;;;1.57;77.83;93987.63;5073199;28;20047;-72
2021/12/11 00:40:09;;;;;;;11.30;6.88;;;;;;;1.47;77.70;93971.19;5052711;28;20413;-72
2021/12/11 00:42:34;;;;;;;14.23;7.72;;;;;;;1.34;77.74;93964.25;5074791;28;20031;-72
2021/12/11 00:45:11;;;;;;;13.73;7.32;;;;;;;1.37;78.09;93965.81;5090861;28;20114;-72
2021/12/11 00:47:42;;;;;;;12.75;6.72;;;;;;;1.41;78.29;93981.78;5090112;28;20043;-72
2021/12/11 00:50:10;;;;;;;12.90;7.18;;;;;;;1.33;78.33;93972.00;5089511;28;20034;-72
2021/12/11 00:52:56;;;;;;;10.07;6.25;;;;;;;1.33;78.23;93957.47;5089630;28;20063;-72
2021/12/11 00:55:33;;;;;;;19.25;7.47;;;;;;;1.28;78.31;93948.44;5074691;28;20046;-72
2021/12/11 00:58:07;;;;;;;13.73;7.20;;;;;;;1.15;77.72;93935.56;5050989;28;20032;-72
2021/12/11 01:00:36;;;;;;;15.98;7.50;;;;;;;1.23;77.59;93928.25;5090819;28;20115;-72
2021/12/11 01:03:01;;;;;;;14.43;7.20;;;;;;;1.24;77.61;93934.19;5078333;28;20028;-72
2021/12/11 01:05:36;;;;;;;25.67;12.30;;;;;;;1.22;78.65;93921.47;5086514;28;20093;-72
2021/12/11 01:08:15;;;;;;;31.45;13.90;;;;;;;1.18;79.01;93939.69;5073398;28;20032;-72
2021/12/11 01:10:40;;;;;;;33.13;14.80;;;;;;;1.16;79.32;93926.16;5089312;28;20682;-72
2021/12/11 01:13:06;;;;;;;32.55;17.48;;;;;;;1.21;78.58;93945.44;5072652;28;20138;-72
2021/12/11 01:15:35;;;;;;;31.65;16.20;;;;;;;1.15;79.42;93934.75;5076634;28;20044;-72
2021/12/11 01:21:12;;;;;;;27.35;14.63;;;;;;;1.16;79.47;93926.16;5064040;28;20047;-72
2021/12/11 01:26:08;;;;;;;26.52;13.55;;;;;;;1.08;78.68;93927.41;5080550;28;20074;-72
2021/12/11 01:28:34;;;;;;;29.83;14.05;;;;;;;1.22;79.58;93941.94;5060315;28;20030;-72
2021/12/11 01:30:59;;;;;;;28.30;13.60;;;;;;;1.13;79.11;93944.25;5083423;28;20115;-72
2021/12/11 01:33:25;;;;;;;24.65;13.80;;;;;;;1.27;78.24;93936.56;5053514;28;20021;-72
2021/12/11 01:35:50;;;;;;;26.63;13.20;;;;;;;1.17;78.69;93926.06;5082219;28;20043;-72
2021/12/11 01:38:24;;;;;;;24.27;12.95;;;;;;;1.28;78.89;93936.47;5090455;28;20028;-72
2021/12/11 01:40:51;;;;;;;23.70;11.93;;;;;;;1.24;78.75;93919.66;5080355;28;20036;-72
2021/12/11 01:43:16;;;;;;;24.40;11.50;;;;;;;1.25;78.66;93926.41;5052463;28;20035;-72
2021/12/11 01:45:46;;;;;;;20.17;10.20;;;;;;;1.24;79.06;93922.22;5059477;28;20429;-71
2021/12/11 01:48:25;;;;;;;22.92;10.52;;;;;;;1.20;78.92;93907.97;5088893;28;20409;-72
2021/12/11 01:50:55;;;;;;;18.50;9.63;;;;;;;1.25;79.76;93915.34;5073679;28;20554;-72
2021/12/11 01:53:23;;;;;;;17.23;8.23;;;;;;;1.29;79.40;93921.94;5074528;28;20024;-72
2021/12/11 01:55:57;;;;;;;14.30;7.93;;;;;;;1.22;78.90;93916.34;5092538;28;20297;-72
2021/12/11 01:58:38;;;;;;;14.18;7.18;;;;;;;1.29;79.36;93927.88;5090420;28;20035;-72
2021/12/11 02:01:31;;;;;;;16.17;8.73;;;;;;;1.32;79.15;93921.75;5071956;28;20033;-72
2021/12/11 02:03:57;;;;;;;11.77;7.05;;;;;;;1.34;79.39;93922.50;5072711;28;20024;-72
2021/12/11 02:06:27;;;;;;;7.85;4.85;;;;;;;1.31;79.05;93920.13;5074622;28;20035;-72
2021/12/11 02:08:52;;;;;;;6.43;4.03;;;;;;;1.44;78.52;93907.38;5091656;28;20156;-72
2021/12/11 02:11:21;;;;;;;8.93;4.50;;;;;;;1.51;78.63;93911.22;5092395;28;20032;-72
2021/12/11 02:13:53;;;;;;;7.30;3.95;;;;;;;1.61;78.08;93908.91;5075679;28;20030;-71
2021/12/11 02:16:18;;;;;;;;;;;;;;;1.67;78.13;93916.19;5058450;28;20044;-71
2021/12/11 02:18:46;;;;;;;7.50;3.90;;;;;;;1.63;77.69;93907.88;5073412;28;20370;-71
2021/12/11 02:21:15;;;;;;;8.00;3.97;;;;;;;1.68;78.15;93907.59;5072998;28;20037;-72
2021/12/11 02:23:41;;;;;;;6.72;3.90;;;;;;;1.69;78.00;93907.50;5093367;28;20032;-72
2021/12/11 02:26:16;;;;;;;7.97;4.15;;;;;;;1.67;77.66;93904.22;5075291;28;20063;-72
2021/12/11 02:29:13;;;;;;;6.22;4.10;;;;;;;1.73;77.48;93929.44;5093345;28;20046;-72
2021/12/11 02:31:42;;;;;;;12.45;7.80;;;;;;;1.57;76.97;93946.69;5091677;28;20109;-72
2021/12/11 02:34:16;;;;;;;11.02;6.13;;;;;;;1.60;77.27;93926.00;5080304;28;20033;-71
2021/12/11 02:37:07;;;;;;;9.48;5.65;;;;;;;1.80;76.63;93917.06;5078630;28;20417;-72
2021/12/11 02:39:39;;;;;;;10.40;5.50;;;;;;;1.87;77.09;93907.28;5057689;28;20119;-72
2021/12/11 02:42:07;;;;;;;10.27;4.68;;;;;;;1.90;76.79;93904.53;5074081;28;20093;-72
2021/12/11 02:44:51;;;;;;;8.43;4.65;;;;;;;1.87;77.87;93908.09;5092951;28;20032;-72
2021/12/11 02:47:38;;;;;;;7.45;4.45;;;;;;;1.67;78.65;93886.31;5058734;28;20036;-72
2021/12/11 02:50:23;;;;;;;5.32;3.63;;;;;;;1.76;79.22;93892.59;5092887;28;20035;-72
2021/12/11 02:52:58;;;;;;;6.05;3.75;;;;;;;1.82;78.38;93893.94;5070316;28;20023;-72
2021/12/11 02:55:34;;;;;;;8.02;3.92;;;;;;;1.73;78.90;93875.69;5091406;28;20056;-72
2021/12/11 02:58:09;;;;;;;6.28;3.70;;;;;;;1.71;79.58;93890.31;5071801;28;20387;-72
2021/12/11 03:00:40;;;;;;;32.47;15.25;;;;;;;1.55;78.63;93893.00;5071321;28;20033;-72
2021/12/11 03:03:08;;;;;;;42.17;19.45;;;;;;;1.62;78.23;93903.69;5054956;28;20020;-72
2021/12/11 03:05:50;;;;;;;30.73;16.17;;;;;;;1.47;79.25;93905.44;5072774;28;20052;-72
2021/12/11 03:08:17;;;;;;;31.90;17.10;;;;;;;1.50;78.78;93897.56;5053624;28;20028;-72
2021/12/11 03:10:44;;;;;;;27.10;14.60;;;;;;;1.66;78.01;93897.44;5072535;28;20102;-72
2021/12/11 03:13:10;;;;;;;18.38;10.98;;;;;;;1.68;77.85;93887.94;5086926;28;20028;-72
2021/12/11 03:15:35;;;;;;;14.15;8.98;;;;;;;1.55;78.77;93887.06;5091276;28;20432;-72
2021/12/11 03:18:01;;;;;;;9.10;4.93;;;;;;;1.79;78.57;93884.72;5074104;28;20484;-72
2021/12/11 03:20:27;;;;;;;10.13;4.50;;;;;;;1.93;78.44;93884.66;5072195;28;20098;-72
2021/12/11 03:22:52;;;;;;;5.10;3.17;;;;;;;2.00;77.87;93893.56;5070924;28;20461;-72
2021/12/11 03:25:22;;;;;;;7.05;3.97;;;;;;;2.06;79.20;93879.53;5070307;28;20037;-72
2021/12/11 03:27:47;;;;;;;8.93;4.60;;;;;;;2.09;79.26;93873.41;5070815;28;20032;-72
2021/12/11 03:30:16;;;;;;;10.18;6.20;;;;;;;2.19;77.71;93872.72;5086143;28;20111;-72
2021/12/11 03:32:43;;;;;;;25.13;12.55;;;;;;;2.07;78.26;93873.50;5092022;28;20050;-72
2021/12/11 03:35:09;;;;;;;17.77;10.35;;;;;;;1.98;76.63;93869.00;5090707;28;20036;-72
2021/12/11 03:37:34;;;;;;;22.83;12.40;;;;;;;2.06;77.04;93871.03;5092227;28;20081;-72
2021/12/11 03:40:00;;;;;;;22.10;12.65;;;;;;;2.03;76.96;93846.44;5091871;28;20107;-72
2021/12/11 03:42:30;;;;;;;18.63;11.90;;;;;;;2.07;77.36;93850.47;5090775;28;20172;-72
2021/12/11 03:44:56;;;;;;;18.63;11.48;;;;;;;2.10;78.39;93846.88;5073520;28;20024;-72
2021/12/11 03:47:24;;;;;;;22.70;13.80;;;;;;;2.06;77.43;93853.09;5090697;28;20047;-73
2021/12/11 03:49:50;;;;;;;25.67;14.10;;;;;;;2.06;78.25;93851.34;5073691;28;20101;-72
2021/12/11 03:52:15;;;;;;;7.07;4.60;;;;;;;2.23;77.16;93863.91;5073723;28;20501;-72
2021/12/11 03:54:42;;;;;;;11.45;5.35;;;;;;;2.32;76.84;93866.81;5091296;28;20032;-72
2021/12/11 03:57:08;;;;;;;6.90;4.30;;;;;;;2.45;76.67;93883.00;5090478;28;20058;-72
2021/12/11 03:59:34;;;;;;;8.75;5.10;;;;;;;2.55;76.93;93883.22;5073249;28;20050;-72
2021/12/11 04:02:04;;;;;;;6.32;4.70;;;;;;;2.60;77.40;93887.13;5057551;28;20036;-72
2021/12/11 04:04:36;;;;;;;7.43;4.30;;;;;;;2.60;76.59;93882.00;5071181;28;20419;-72
2021/12/11 04:07:03;;;;;;;7.85;4.53;;;;;;;2.66;76.92;93880.75;5070058;28;20039;-72
2021/12/11 04:09:29;;;;;;;9.23;4.80;;;;;;;2.67;75.83;93882.41;5056987;28;20033;-72
2021/12/11 04:11:54;;;;;;;7.72;4.38;;;;;;;2.86;74.95;93893.06;5072209;28;20025;-72
2021/12/11 04:14:22;;;;;;;6.95;4.50;;;;;;;2.97;75.32;93879.53;5069785;28;20029;-72
2021/12/11 04:16:49;;;;;;;7.70;5.20;;;;;;;2.94;75.82;93878.91;5052831;28;20028;-72
2021/12/11 04:19:14;;;;;;;9.73;8.02;;;;;;;2.92;75.37;93876.44;5053272;28;20406;-72
2021/12/11 04:21:40;;;;;;;7.97;4.88;;;;;;;2.94;75.64;93869.47;5082597;28;20228;-72
2021/12/11 04:24:06;;;;;;;6.32;4.75;;;;;;;2.99;75.50;93872.53;5072975;28;20078;-72
2021/12/11 04:26:32;;;;;;;7.25;4.30;;;;;;;3.06;74.60;93868.63;5071157;28;20032;-72
2021/12/11 04:28:57;;;;;;;8.80;4.47;;;;;;;3.07;75.09;93864.34;5089830;28;20035;-72
2021/12/11 04:31:25;;;;;;;7.72;4.80;;;;;;;3.09;75.52;93853.03;5089791;28;20239;-72
2021/12/11 04:33:52;;;;;;;7.45;4.35;;;;;;;3.08;75.76;93846.25;5089876;28;20031;-72
2021/12/11 04:36:25;;;;;;;7.00;4.32;;;;;;;3.10;75.75;93848.72;5076042;28;20035;-72
2021/12/11 04:38:51;;;;;;;8.75;4.22;;;;;;;3.12;75.70;93852.81;5066411;28;20574;-72
2021/12/11 04:41:23;;;;;;;8.20;4.32;;;;;;;3.01;77.07;93837.34;5055618;28;20082;-72
2021/12/11 04:43:49;;;;;;;8.75;4.43;;;;;;;3.06;76.18;93845.53;5068231;28;20056;-72
2021/12/11 04:46:14;;;;;;;6.97;4.38;;;;;;;3.13;76.71;93846.75;5064929;28;20040;-72
2021/12/11 04:51:37;;;;;;;8.07;4.57;;;;;;;3.18;76.59;93851.56;5072454;28;20391;-72
2021/12/11 05:09:57;;;;;;;24.45;14.00;;;;;;;2.40;78.66;93824.34;5090524;28;20486;-71
2021/12/11 05:14:51;;;;;;;34.75;17.98;;;;;;;2.49;80.29;93837.50;5069266;28;20040;-72
2021/12/11 05:17:16;;;;;;;34.72;16.65;;;;;;;2.63;79.54;93833.06;5057496;28;20036;-72
2021/12/11 05:19:42;;;;;;;22.25;12.43;;;;;;;2.70;79.28;93825.75;5076234;28;20402;-72
2021/12/11 05:22:08;;;;;;;20.55;9.18;;;;;;;2.75;79.53;93828.84;5052422;28;20035;-72
2021/12/11 05:24:34;;;;;;;15.15;9.35;;;;;;;2.76;79.81;93820.25;5062738;28;20036;-72
2021/12/11 05:27:01;;;;;;;15.10;8.77;;;;;;;2.75;79.96;93817.78;5083454;28;20486;-72
2021/12/11 05:29:27;;;;;;;11.00;6.93;;;;;;;2.83;79.02;93828.34;5072797;28;20089;-72
2021/12/11 05:31:52;;;;;;;11.93;6.72;;;;;;;2.67;79.13;93808.88;5059666;28;20020;-72
2021/12/11 05:34:18;;;;;;;14.15;7.38;;;;;;;2.87;79.30;93828.03;5072630;28;20031;-71
2021/12/11 05:36:43;;;;;;;9.50;5.53;;;;;;;2.76;79.14;93821.97;5056067;28;20035;-72
2021/12/11 05:39:11;;;;;;;19.20;11.70;;;;;;;2.52;80.90;93832.16;5063628;28;20107;-72
2021/12/11 05:41:37;;;;;;;10.30;6.60;;;;;;;2.65;79.76;93815.84;5076727;28;20460;-72
2021/12/11 05:44:03;;;;;;;12.63;6.57;;;;;;;2.60;79.49;93805.06;5072432;28;20123;-72
2021/12/11 05:46:28;;;;;;;10.40;6.22;;;;;;;2.74;79.71;93821.28;5056009;28;20041;-72
2021/12/11 05:48:54;;;;;;;8.75;5.95;;;;;;;2.80;79.69;93831.91;5062113;28;20508;-72
2021/12/11 05:51:22;;;;;;;8.63;5.50;;;;;;;2.83;79.41;93829.16;5059448;28;20032;-72
2021/12/11 05:53:48;;;;;;;8.57;5.63;;;;;;;2.83;79.63;93831.72;5075984;28;20066;-72
2021/12/11 05:56:14;;;;;;;11.05;6.10;;;;;;;2.83;79.84;93838.59;5059112;28;20570;-72
2021/12/11 05:58:56;;;;;;;10.95;5.45;;;;;;;2.91;79.29;93836.31;5092164;28;20024;-72
2021/12/11 06:01:35;;;;;;;9.45;5.10;;;;;;;2.89;80.00;93835.59;5075566;28;20028;-72
2021/12/11 06:04:05;;;;;;;7.70;5.20;;;;;;;2.88;80.01;93849.38;5089098;28;20043;-72
2021/12/11 06:06:30;;;;;;;7.78;5.07;;;;;;;2.89;79.80;93844.13;5057287;28;20040;-72
2021/12/11 06:08:55;;;;;;;9.82;5.35;;;;;;;2.91;79.87;93836.31;5091489;28;20023;-72
2021/12/11 06:11:21;;;;;;;12.00;6.47;;;;;;;2.99;78.93;93848.63;5080535;28;20117;-72
2021/12/11 06:13:46;;;;;;;8.55;5.32;;;;;;;2.96;78.95;93841.97;5077063;28;20035;-72
2021/12/11 06:16:12;;;;;;;10.02;5.88;;;;;;;3.06;79.06;93850.66;5072189;28;20043;-72
2021/12/11 06:18:37;;;;;;;7.30;5.05;;;;;;;2.98;79.70;93849.53;5074762;28;20032;-72
2021/12/11 06:21:03;;;;;;;7.43;4.80;;;;;;;2.82;80.80;93850.59;5065056;28;20064;-72
2021/12/11 06:23:28;;;;;;;8.68;4.43;;;;;;;2.74;80.66;93831.53;5089086;28;20444;-73
2021/12/11 06:25:55;;;;;;;9.38;6.10;;;;;;;2.80;81.00;93841.38;5087971;28;20044;-72
2021/12/11 06:28:21;;;;;;;15.98;9.60;;;;;;;2.81;80.90;93841.25;5054514;28;20020;-72
2021/12/11 06:30:47;;;;;;;24.45;12.85;;;;;;;2.89;80.75;93841.53;5073481;28;20036;-72
2021/12/11 06:33:12;;;;;;;23.10;11.57;;;;;;;2.97;80.40;93855.59;5073949;28;20020;-72
2021/12/11 06:35:43;;;;;;;36.28;18.60;;;;;;;3.02;80.16;93853.56;5071752;28;20032;-72
2021/12/11 06:38:09;;;;;;;26.50;14.00;;;;;;;3.10;79.90;93849.53;5078906;28;20043;-72
2021/12/11 06:40:34;;;;;;;28.95;12.68;;;;;;;3.18;79.97;93855.91;5079413;28;20579;-72
2021/12/11 06:43:00;;;;;;;25.08;10.43;;;;;;;3.25;79.73;93851.97;5063406;28;20046;-72
2021/12/11 06:45:26;;;;;;;27.40;12.40;;;;;;;3.25;79.61;93854.53;5051246;28;20497;-72
2021/12/11 06:47:52;;;;;;;30.83;12.73;;;;;;;3.14;79.75;93825.28;5070529;28;20413;-72
2021/12/11 06:50:18;;;;;;;29.77;12.35;;;;;;;3.30;80.02;93845.59;5086961;28;20028;-72
2021/12/11 06:52:44;;;;;;;30.60;12.50;;;;;;;3.29;80.02;93848.28;5074166;28;20024;-72
2021/12/11 06:55:09;;;;;;;26.27;12.55;;;;;;;3.35;79.67;93848.66;5055762;28;20066;-72
2021/12/11 06:57:35;;;;;;;26.13;12.45;;;;;;;3.40;79.65;93840.63;5089532;28;20481;-72
2021/12/11 07:00:01;;;;;;;27.05;12.82;;;;;;;3.49;79.64;93847.69;5090644;28;20047;-72
2021/12/11 07:02:26;;;;;;;18.17;10.55;;;;;;;3.47;79.20;93831.56;5089064;28;20020;-73
2021/12/11 07:04:54;;;;;;;20.25;10.20;;;;;;;3.64;79.03;93848.34;5090554;28;20405;-72
2021/12/11 07:07:23;;;;;;;16.45;9.02;;;;;;;3.70;78.63;93844.50;5053801;28;20020;-72
2021/12/11 07:09:49;;;;;;;14.43;8.13;;;;;;;3.69;78.88;93835.19;5069902;28;20044;-72
2021/12/11 07:12:14;;;;;;;13.65;8.13;;;;;;;3.65;79.13;93844.88;5080704;28;20028;-72
2021/12/11 07:14:40;;;;;;;14.65;7.40;;;;;;;3.69;79.08;93840.31;5073353;28;20598;-72
2021/12/11 07:17:05;;;;;;;13.68;6.57;;;;;;;3.57;79.51;93824.84;5091266;28;20386;-72
2021/12/11 07:19:31;;;;;;;13.00;6.68;;;;;;;3.61;79.33;93829.78;5057932;28;20436;-72
2021/12/11 07:21:56;;;;;;;15.27;6.32;;;;;;;3.66;79.32;93830.25;5058247;28;20077;-72
2021/12/11 07:24:33;;;;;;;8.18;5.35;;;;;;;3.68;79.51;93821.53;5056566;28;20032;-72
2021/12/11 07:27:00;;;;;;;7.55;5.18;;;;;;;3.62;79.26;93810.84;5069494;28;20050;-72
2021/12/11 07:29:26;;;;;;;8.80;5.25;;;;;;;3.79;79.57;93831.03;5088747;28;20087;-72
2021/12/11 07:31:53;;;;;;;27.20;16.33;;;;;;;3.80;79.06;93830.09;5087960;28;20516;-72
2021/12/11 07:34:19;;;;;;;95.40;51.28;;;;;;;3.77;78.53;93822.59;5089948;28;20020;-72
2021/12/11 07:36:45;;;;;;;89.28;43.30;;;;;;;3.74;78.76;93826.22;5088410;28;20039;-72
2021/12/11 07:39:11;;;;;;;98.60;44.90;;;;;;;3.60;78.63;93821.25;5068021;28;20020;-72
2021/12/11 07:41:37;;;;;;;110.13;51.05;;;;;;;3.72;78.47;93816.97;5072933;28;20116;-72
2021/12/11 07:44:03;;;;;;;110.63;54.88;;;;;;;3.76;78.35;93826.09;5081595;28;20025;-72
2021/12/11 07:46:29;;;;;;;97.55;48.53;;;;;;;3.85;78.41;93825.44;5052621;28;20063;-72
2021/12/11 07:48:56;;;;;;;81.88;38.33;;;;;;;3.86;78.10;93829.66;5053869;28;20606;-72
2021/12/11 07:51:23;;;;;;;93.18;41.83;;;;;;;3.65;78.62;93824.31;5088827;28;20107;-72
2021/12/11 07:53:49;;;;;;;61.47;36.17;;;;;;;3.51;78.64;93821.88;5055762;28;20028;-72
2021/12/11 07:56:17;;;;;;;66.22;35.13;;;;;;;3.62;78.40;93821.13;5072608;28;20058;-72
2021/12/11 07:58:43;;;;;;;59.15;34.10;;;;;;;3.68;78.43;93816.38;5061296;28;20024;-72
2021/12/11 08:01:08;;;;;;;48.10;28.13;;;;;;;3.90;77.75;93818.22;5053094;28;20024;-70
2021/12/11 08:03:34;;;;;;;58.35;31.00;;;;;;;4.06;77.33;93817.09;5074854;28;20401;-71
2021/12/11 08:06:00;;;;;;;48.20;27.50;;;;;;;4.19;77.41;93815.28;5047095;28;20028;-70
2021/12/11 08:08:26;;;;;;;58.92;36.05;;;;;;;4.22;77.75;93821.00;5078165;28;20456;-70
2021/12/11 08:10:54;;;;;;;58.08;35.80;;;;;;;4.31;77.81;93819.50;5079244;28;20540;-70
2021/12/11 08:13:19;;;;;;;52.67;33.55;;;;;;;4.34;77.86;93826.97;5043517;28;20029;-71
2021/12/11 08:15:45;;;;;;;68.63;36.13;;;;;;;4.47;77.59;93822.56;5068874;28;20478;-70
2021/12/11 08:18:11;;;;;;;161.73;67.22;;;;;;;4.50;76.99;93800.97;5078665;28;20567;-70
2021/12/11 08:20:37;;;;;;;88.13;45.67;;;;;;;4.57;76.33;93807.28;5076171;28;20108;-70
2021/12/11 08:23:03;;;;;;;84.78;45.75;;;;;;;4.69;76.67;93795.25;5073077;28;20496;-71
2021/12/11 08:25:33;;;;;;;123.50;57.13;;;;;;;4.90;76.01;93808.22;5049223;28;20051;-70
2021/12/11 08:27:58;;;;;;;115.35;59.13;;;;;;;4.80;74.51;93790.09;5059266;28;20016;-70
2021/12/11 08:30:25;;;;;;;117.70;56.72;;;;;;;4.97;73.80;93798.28;5080950;28;20032;-71
2021/12/11 08:32:51;;;;;;;105.45;51.05;;;;;;;5.06;73.89;93808.69;5086001;28;20035;-72
2021/12/11 08:35:16;;;;;;;61.13;32.75;;;;;;;4.91;70.99;93800.38;5082359;28;20042;-72
2021/12/11 08:37:44;;;;;;;55.42;26.17;;;;;;;5.01;70.35;93809.97;5080968;28;20061;-72
2021/12/11 08:40:13;;;;;;;55.78;26.27;;;;;;;5.07;71.20;93801.78;5087970;28;20032;-74
2021/12/11 08:42:38;;;;;;;58.90;32.80;;;;;;;5.09;70.73;93805.06;5075967;28;20048;-72
2021/12/11 08:45:07;;;;;;;55.35;30.80;;;;;;;5.22;71.87;93810.91;5064195;28;20603;-72
2021/12/11 08:47:39;;;;;;;34.38;19.48;;;;;;;5.31;70.81;93810.16;5089410;28;20035;-74
2021/12/11 08:50:05;;;;;;;27.15;13.52;;;;;;;5.17;67.97;93807.84;5072018;28;20035;-71
2021/12/11 08:52:36;;;;;;;51.17;22.13;;;;;;;5.04;69.14;93794.28;5084221;28;20036;-72
2021/12/11 08:55:04;;;;;;;58.85;23.95;;;;;;;5.22;70.09;93798.03;5083754;28;20048;-72
2021/12/11 08:57:32;;;;;;;39.90;18.27;;;;;;;5.35;69.03;93792.75;5068204;28;20028;-72
2021/12/11 09:00:01;;;;;;;72.78;33.70;;;;;;;5.50;69.54;93785.56;5088632;28;20066;-73
2021/12/11 09:02:30;;;;;;;65.75;34.33;;;;;;;5.63;68.24;93785.38;5066336;28;20028;-74
2021/12/11 09:05:04;;;;;;;54.47;32.35;;;;;;;5.71;67.57;93778.69;5092454;28;20056;-71
2021/12/11 09:07:38;;;;;;;56.70;33.75;;;;;;;5.73;68.15;93768.25;5089191;28;20036;-72
2021/12/11 09:10:39;;;;;;;48.40;25.35;;;;;;;5.77;69.21;93767.91;5057804;28;20413;-71
2021/12/11 09:13:13;;;;;;;43.22;23.25;;;;;;;5.68;69.38;93752.34;5087978;28;20028;-72
2021/12/11 09:15:47;;;;;;;53.42;26.50;;;;;;;5.72;68.67;93764.06;5077914;28;20115;-72
2021/12/11 09:18:24;;;;;;;64.75;31.98;;;;;;;5.58;67.58;93744.53;5074757;28;20036;-73
2021/12/11 09:20:57;;;;;;;44.95;24.75;;;;;;;5.68;67.73;93744.63;5058543;28;20061;-74
2021/12/11 09:23:41;;;;;;;54.92;28.80;;;;;;;5.76;70.31;93750.78;5084399;28;20504;-74
2021/12/11 09:26:12;;;;;;;38.25;21.65;;;;;;;5.82;67.53;93742.56;5077541;28;20035;-73
2021/12/11 09:29:04;;;;;;;35.47;19.38;;;;;;;5.89;67.76;93742.88;5058931;28;20020;-72
2021/12/11 09:31:35;;;;;;;40.22;21.60;;;;;;;5.80;68.75;93736.72;5090131;28;20036;-73
2021/12/11 09:34:05;;;;;;;37.35;19.92;;;;;;;5.58;68.02;93741.97;5093701;28;20035;-73
2021/12/11 09:36:35;;;;;;;39.80;22.40;;;;;;;5.63;68.88;93739.84;5074997;28;20041;-73
2021/12/11 09:39:09;;;;;;;36.70;19.40;;;;;;;5.75;69.31;93740.63;5086652;28;20020;-73
2021/12/11 09:41:35;;;;;;;33.72;18.33;;;;;;;5.86;68.62;93729.44;5071094;28;20051;-73
2021/12/11 09:44:07;;;;;;;31.42;17.40;;;;;;;5.89;68.68;93732.56;5086389;28;20031;-73
2021/12/11 09:46:33;;;;;;;;;;;;;;;5.96;67.31;93727.75;5093264;28;20036;-73
2021/12/11 09:48:59;;;;;;;23.65;14.30;;;;;;;6.02;68.46;93729.84;5085865;28;19924;-73
2021/12/11 09:51:29;;;;;;;30.15;15.40;;;;;;;6.08;69.42;93713.88;5053293;28;20383;-73
2021/12/11 09:53:58;;;;;;;29.95;19.50;;;;;;;6.06;68.06;93726.06;5069426;28;20548;-73
2021/12/11 09:57:03;;;;;;;28.92;19.02;;;;;;;6.15;68.03;93722.72;5074150;28;20089;-73
2021/12/11 09:59:30;;;;;;;30.65;20.15;;;;;;;6.14;68.74;93715.13;5091912;28;20032;-73
2021/12/11 10:01:59;;;;;;;34.13;21.60;;;;;;;6.19;69.64;93715.56;5071914;28;20120;-73
2021/12/11 10:04:32;;;;;;;46.33;29.13;;;;;;;6.21;69.49;93709.34;5090324;28;20111;-74
2021/12/11 10:09:43;;;;;;;57.33;33.78;;;;;;;6.26;67.96;93696.03;5072368;28;20033;-74
2021/12/11 10:12:16;;;;;;;65.07;37.58;;;;;;;6.18;70.15;93693.28;5071378;28;20025;-74
2021/12/11 10:14:45;;;;;;;130.77;46.25;;;;;;;6.26;67.28;93690.88;5053105;28;20131;-74
2021/12/11 10:17:14;;;;;;;92.10;41.38;;;;;;;6.35;68.79;93704.78;5070762;28;20611;-74
2021/12/11 10:19:40;;;;;;;128.10;52.20;;;;;;;6.32;68.13;93698.09;5070951;28;20036;-74
2021/12/11 10:22:16;;;;;;;107.18;45.08;;;;;;;6.38;68.50;93709.66;5063969;28;20031;-74
2021/12/11 10:24:42;;;;;;;113.20;45.47;;;;;;;6.43;69.65;93708.34;5089824;28;20046;-74
2021/12/11 10:27:11;;;;;;;74.65;36.13;;;;;;;6.42;67.31;93705.91;5075385;28;20020;-74
2021/12/11 10:29:36;;;;;;;94.38;37.90;;;;;;;6.41;66.98;93699.94;5082520;28;20024;-74
2021/12/11 10:32:06;;;;;;;87.20;39.15;;;;;;;6.34;67.52;93701.38;5058564;28;20062;-74
2021/12/11 10:34:31;;;;;;;98.22;42.08;;;;;;;6.37;67.41;93706.28;5091412;28;20034;-74
2021/12/11 10:37:11;;;;;;;98.40;42.25;;;;;;;6.39;69.08;93698.44;5057951;28;20023;-74
2021/12/11 10:39:40;;;;;;;94.75;41.38;;;;;;;6.40;68.50;93705.22;5074800;28;20560;-74
2021/12/11 10:42:06;;;;;;;92.65;40.75;;;;;;;6.40;68.30;93705.22;5091527;28;20099;-74
2021/12/11 10:44:34;;;;;;;82.13;37.65;;;;;;;6.39;68.53;93688.91;5091630;28;20036;-74
2021/12/11 10:47:06;;;;;;;79.30;37.60;;;;;;;6.41;67.30;93688.81;5072400;28;20114;-74
2021/12/11 10:49:32;;;;;;;76.68;35.95;;;;;;;6.40;66.79;93664.75;5083786;28;20040;-73
2021/12/11 10:52:07;;;;;;;71.50;38.55;;;;;;;6.46;67.55;93661.66;5064369;28;20413;-73
2021/12/11 10:54:33;;;;;;;76.93;40.70;;;;;;;6.47;69.59;93663.28;5073328;28;20044;-73
2021/12/11 10:56:59;;;;;;;79.20;41.25;;;;;;;6.55;68.68;93667.00;5070570;28;20136;-72
2021/12/11 10:59:28;;;;;;;83.97;44.47;;;;;;;6.55;67.95;93665.22;5066891;28;20052;-73
2021/12/11 11:01:59;;;;;;;97.32;47.28;;;;;;;6.61;68.41;93663.88;5079840;28;20027;-74
2021/12/11 11:04:29;;;;;;;115.65;52.05;;;;;;;6.61;68.36;93662.13;5084511;28;20406;-73
2021/12/11 11:06:54;;;;;;;113.07;53.03;;;;;;;6.67;68.43;93659.00;5054269;28;20036;-73
2021/12/11 11:09:20;;;;;;;138.63;68.93;;;;;;;6.69;69.05;93659.69;5074365;28;20012;-74
2021/12/11 11:11:47;;;;;;;143.63;64.28;;;;;;;6.70;69.36;93661.31;5053989;28;20040;-74
2021/12/11 11:14:12;;;;;;;136.07;59.63;;;;;;;6.74;69.30;93672.19;5071961;28;20052;-74
2021/12/11 11:16:41;;;;;;;119.25;55.60;;;;;;;6.72;69.49;93656.03;5053051;28;20034;-74
2021/12/11 11:19:07;;;;;;;121.70;50.03;;;;;;;6.77;68.92;93658.19;5049187;28;20029;-73
2021/12/11 11:21:39;;;;;;;111.20;47.65;;;;;;;6.76;67.98;93652.22;5083449;28;20031;-73
2021/12/11 11:24:04;;;;;;;84.22;37.75;;;;;;;6.72;66.36;93636.19;5084024;28;20052;-73
2021/12/11 11:26:32;;;;;;;29.38;14.10;;;;;;;6.72;65.00;93631.03;5081261;28;20060;-73
2021/12/11 11:28:58;;;;;;;30.15;15.25;;;;;;;6.80;66.23;93616.63;5081996;28;20089;-73
2021/12/11 11:31:27;;;;;;;18.73;9.45;;;;;;;6.82;66.82;93620.72;5088720;28;20028;-73
2021/12/11 11:33:53;;;;;;;27.30;12.75;;;;;;;6.83;68.90;93616.41;5088553;28;20028;-72
2021/12/11 11:36:21;;;;;;;35.63;17.48;;;;;;;6.89;69.74;93610.69;5069544;28;20032;-74
2021/12/11 11:38:49;;;;;;;40.58;21.38;;;;;;;6.89;70.16;93615.84;5054976;28;20048;-73
2021/12/11 11:41:24;;;;;;;71.00;38.38;;;;;;;6.86;68.59;93598.88;5054423;28;20032;-73
2021/12/11 11:43:50;;;;;;;67.55;37.30;;;;;;;7.00;69.31;93597.66;5055636;28;20032;-72
2021/12/11 11:46:16;;;;;;;90.13;47.70;;;;;;;6.99;69.58;93585.69;5070067;28;20124;-72
2021/12/11 11:48:43;;;;;;;102.72;48.55;;;;;;;6.94;68.49;93587.88;5087909;28;20054;-71
2021/12/11 11:51:15;;;;;;;88.10;46.10;;;;;;;6.98;68.63;93599.56;5086786;28;20413;-70
2021/12/11 11:53:40;;;;;;;80.72;44.08;;;;;;;7.02;69.08;93600.94;5087933;28;20031;-73
2021/12/11 11:56:07;;;;;;;74.40;42.75;;;;;;;6.95;69.55;93607.56;5065363;28;20060;-72
2021/12/11 11:58:33;;;;;;;70.07;41.78;;;;;;;6.89;69.07;93602.94;5070820;28;20024;-71
2021/12/11 12:01:12;;;;;;;67.20;38.58;;;;;;;6.93;70.31;93594.78;5084269;28;20489;-71
2021/12/11 12:03:38;;;;;;;74.20;39.08;;;;;;;6.93;70.70;93597.34;5082801;28;20031;-72
2021/12/11 12:06:11;;;;;;;63.22;34.95;;;;;;;6.93;71.13;93596.56;5053800;28;20044;-71
2021/12/11 12:08:38;;;;;;;57.30;32.78;;;;;;;6.80;70.34;93583.06;5074304;28;20045;-72
2021/12/11 12:11:05;;;;;;;57.50;31.52;;;;;;;6.91;70.49;93590.72;5056916;28;20028;-72